Country
Station

 

Weather  for  Wick  -  United Kingdom    United Kingdom

  
10 °C (50 °F)
    
 
 

Current METAR for Wick is :

EGPC 192120Z AUTO 18005KT 9999 NCD 10/08 Q1021

 

This is a report for Wick - United Kingdom.
 
The report was made 8 minutes ago, at 21:20 UTC .
The wind was blowing at a speed of 2.6 meters per second (5.8 miles per hour) from south (180°).
 
The temperature was 10 °C (50 °F), with a dew-point at 8 °C (46 °F).
The atmospheric pressure was 1021 hPa (30.15 inHg).
The relative humidity was 87.4%.
 
The overall visibility was greater than 10 kilometers (6.2 miles).
 

 
 
 
 

Country :   A   B   C   D   E   F   G   H   I   J   K   L   M   N   O   P   Q   R   S   T   U   V   W   Y   Z

 

Site Info  |  Disclaimer  |  Credits  |  Privacy
Contact us  |  Add to favorites
© 2013-2018 METARs - All rights reserved